Savage Opportunity — WDG6313 — position and weather

sailwx.info

Track history (hours):
 
Tides and Currents Weather Stations Pressure Air Temp Water Temp Dewpoint Dewpoint Depression Visibility Wind Speed Wind Dir Waves Ship Positions

Savage Opportunity

Owner: Savage Inland Marine, Gibson, LA. More information available from US FCC via Universal Licensing System and Coast Guard Vessel Documentation Center.

Last reported at 2018-Feb-24 10:57 UTC. Time now 2018-Feb-24 15:49 UTC.
Position N 29°47' W 095°05'.

Length 25 m.

Type: Other ship. MMSI: 367555670.

Date/timePositionNaut miles runAvg speedWind from/ knotsBaromVisibWave heightAir tempDewpointWater temp
2018-Feb-24 10:57N 29°47' W 095°05'0 0.0
2018-Feb-24 10:27N 29°47' W 095°05'0 0.0
2018-Feb-24 10:00N 29°47' W 095°05'0 0.0
2018-Feb-24 09:30N 29°47' W 095°05'0 0.0
2018-Feb-24 08:59N 29°47' W 095°05'0 0.0
2018-Feb-24 08:30N 29°47' W 095°05'0 0.0
2018-Feb-24 07:58N 29°47' W 095°05'0 0.0
2018-Feb-24 07:30N 29°47' W 095°05'0 0.0
2018-Feb-24 06:59N 29°47' W 095°05'0 0.0
2018-Feb-24 06:28N 29°47' W 095°05'0 0.0
2018-Feb-24 06:00N 29°47' W 095°05'0 0.0
2018-Feb-24 05:30N 29°47' W 095°05'0 0.0
2018-Feb-24 04:55N 29°47' W 095°05'0 0.0
2018-Feb-24 04:30N 29°47' W 095°05'0 0.0
2018-Feb-24 03:56N 29°47' W 095°05'1 1.4
2018-Feb-24 03:24N 29°47' W 095°05'4 0.7
2018-Feb-23 22:23N 29°44' W 095°08'2 4.1
2018-Feb-23 22:00N 29°45' W 095°06'3 1.8
2018-Feb-23 20:26N 29°47' W 095°05'0 0.1
2018-Feb-23 19:57N 29°47' W 095°05'0 0.0
2018-Feb-23 19:30N 29°47' W 095°05'0 0.0
2018-Feb-23 19:00N 29°47' W 095°05'0 0.0
2018-Feb-23 18:30N 29°47' W 095°05'0 0.0
2018-Feb-23 18:00N 29°47' W 095°05'0 0.0
2018-Feb-23 17:28N 29°47' W 095°05'0 0.0
2018-Feb-23 17:00N 29°47' W 095°05'0 0.0
2018-Feb-23 16:29N 29°47' W 095°05'0 0.0
2018-Feb-23 15:58N 29°47' W 095°05'5 0.2
2018-Feb-22 17:47N 29°45' W 095°10'5 0.1
2018-Feb-20 14:04N 29°47' W 095°05'0 6.1
2018-Feb-20 14:00N 29°47' W 095°04'1 1.1
2018-Feb-20 13:30N 29°47' W 095°05'1 0.1
2018-Feb-19 18:13N 29°46' W 095°05'1 3.5
2018-Feb-19 17:56N 29°45' W 095°04'2 4.7
2018-Feb-19 17:30N 29°44' W 095°02'2 4.1
2018-Feb-19 16:59N 29°42' W 095°01'3 5.3
2018-Feb-19 16:30N 29°41' W 094°59'3 5.3
2018-Feb-19 16:00N 29°38' W 094°58'3 5.4
2018-Feb-19 15:30N 29°36' W 094°56'3 5.0
2018-Feb-19 15:00N 29°34' W 094°55'3 5.3
2018-Feb-19 14:30N 29°31' W 094°53'3 5.6
2018-Feb-19 14:00N 29°29' W 094°52'4 6.1
2018-Feb-19 13:25N 29°26' W 094°50'3 6.6
2018-Feb-19 13:00N 29°23' W 094°49'1 2.8
2018-Feb-19 12:30N 29°22' W 094°50'3 3.1
2018-Feb-19 11:26N 29°22' W 094°53'0 0.1
2018-Feb-19 11:00N 29°22' W 094°53'0 0.0
2018-Feb-19 10:31N 29°22' W 094°53'0 0.0
2018-Feb-19 09:59N 29°22' W 094°53'0 0.0
2018-Feb-19 09:28N 29°22' W 094°53'0 0.0
2018-Feb-19 09:00N 29°22' W 094°53'0 0.0
2018-Feb-19 08:30N 29°22' W 094°53'0 0.0
2018-Feb-19 08:00N 29°22' W 094°53'0 0.0
2018-Feb-19 07:30N 29°22' W 094°53'0 0.0
2018-Feb-19 07:00N 29°22' W 094°53'0 0.0
2018-Feb-19 06:29N 29°22' W 094°53'0 0.0
2018-Feb-19 06:00N 29°22' W 094°53'0 0.0
2018-Feb-19 05:30N 29°22' W 094°53'0 0.0
2018-Feb-19 05:00N 29°22' W 094°53'0 0.0
2018-Feb-19 04:30N 29°22' W 094°53'0 0.0
2018-Feb-19 03:37N 29°22' W 094°53'0 0.0
2018-Feb-18 19:24N 29°22' W 094°53'0 0.0
2018-Feb-18 16:23N 29°22' W 094°54'0 0.0
2018-Feb-18 10:52N 29°22' W 094°54'0 0.0
2018-Feb-18 09:22N 29°22' W 094°54'0 0.0
2018-Feb-18 07:51N 29°22' W 094°54'0 0.0
2018-Feb-18 05:48N 29°22' W 094°54'0 0.0
2018-Feb-18 05:21N 29°22' W 094°54'7 0.4
2018-Feb-17 11:24N 29°24' W 094°46'0 0.0
2018-Feb-17 09:00N 29°24' W 094°46'0 0.0
2018-Feb-17 08:00N 29°24' W 094°46'0 0.0
2018-Feb-17 06:43N 29°24' W 094°46'0 0.0
2018-Feb-17 06:29N 29°24' W 094°46'0 0.1
2018-Feb-17 05:57N 29°24' W 094°46'0 0.0
2018-Feb-17 05:30N 29°24' W 094°46'0 0.0
2018-Feb-17 04:49N 29°24' W 094°46'0 0.0
2018-Feb-17 04:31N 29°24' W 094°46'0 0.0
2018-Feb-17 04:00N 29°24' W 094°46'0 0.0
2018-Feb-17 03:30N 29°24' W 094°46'0 0.0
2018-Feb-17 03:01N 29°24' W 094°46'0 0.0
2018-Feb-17 02:16N 29°24' W 094°46'0 0.0
2018-Feb-17 02:01N 29°24' W 094°46'0 0.0
2018-Feb-17 01:30N 29°24' W 094°46'0 0.0
2018-Feb-17 00:54N 29°24' W 094°46'0 0.0
2018-Feb-17 00:30N 29°24' W 094°46'0 0.9
2018-Feb-17 00:00N 29°24' W 094°45'0 0.0
2018-Feb-16 23:30N 29°24' W 094°45'0 0.0
2018-Feb-16 22:59N 29°24' W 094°45'3 0.6
2018-Feb-16 17:51N 29°23' W 094°49'3 7.6
2018-Feb-16 17:30N 29°26' W 094°50'4 8.0
2018-Feb-16 17:00N 29°29' W 094°52'4 7.8
2018-Feb-16 16:30N 29°33' W 094°54'3 6.3
2018-Feb-16 16:00N 29°35' W 094°56'3 6.3
2018-Feb-16 15:30N 29°38' W 094°58'4 7.8
2018-Feb-16 15:00N 29°42' W 094°60'3 6.9
2018-Feb-16 14:30N 29°44' W 095°03'3 6.0
2018-Feb-16 14:00N 29°46' W 095°05'0 0.4
2018-Feb-16 13:30N 29°46' W 095°05'0 0.0
2018-Feb-16 09:09N 29°46' W 095°05'0 0.0
2018-Feb-16 07:48N 29°46' W 095°05'0 0.0
2018-Feb-16 07:25N 29°46' W 095°05'0 0.1
2018-Feb-16 06:56N 29°46' W 095°05'0 0.0
2018-Feb-16 06:14N 29°46' W 095°05'0 0.0
2018-Feb-16 05:58N 29°46' W 095°05'0 0.0
2018-Feb-16 05:30N 29°46' W 095°05'0 0.0
2018-Feb-16 04:58N 29°46' W 095°05'0 0.0
2018-Feb-16 04:20N 29°46' W 095°05'0 0.1
2018-Feb-16 03:59N 29°46' W 095°05'0 0.0
2018-Feb-16 03:24N 29°46' W 095°05'0 0.0
2018-Feb-16 02:21N 29°46' W 095°05'1 2.5
2018-Feb-16 01:59N 29°47' W 095°04'0 0.5
2018-Feb-16 01:28N 29°47' W 095°04'0 0.0
2018-Feb-15 07:15N 29°47' W 095°05'0 0.0
2018-Feb-15 07:00N 29°47' W 095°05'0 0.0
2018-Feb-15 06:30N 29°47' W 095°05'0 0.0
2018-Feb-15 05:38N 29°47' W 095°05'0 0.0
2018-Feb-15 05:23N 29°47' W 095°05'0 0.0
2018-Feb-15 04:54N 29°47' W 095°05'0 0.0
2018-Feb-15 04:23N 29°47' W 095°05'  
Track history (hours):
 
Tides and Currents Weather Stations Pressure Air Temp Water Temp Dewpoint Dewpoint Depression Visibility Wind Speed Wind Dir Waves Ship Positions

Savage Opportunity

Owner: Savage Inland Marine, Gibson, LA. More information available from US FCC via Universal Licensing System and Coast Guard Vessel Documentation Center.

Last reported at 2018-Feb-24 10:57 UTC. Time now 2018-Feb-24 15:49 UTC.
Position N 29°47' W 095°05'.

Length 25 m.

Type: Other ship. MMSI: 367555670.

Date/timePositionNaut miles runAvg speedWind from/ knotsBaromVisibWave heightAir tempDewpointWater temp
2018-Feb-24 10:57N 29°47' W 095°05'0 0.0
2018-Feb-24 10:27N 29°47' W 095°05'0 0.0
2018-Feb-24 10:00N 29°47' W 095°05'0 0.0
2018-Feb-24 09:30N 29°47' W 095°05'0 0.0
2018-Feb-24 08:59N 29°47' W 095°05'0 0.0
2018-Feb-24 08:30N 29°47' W 095°05'0 0.0
2018-Feb-24 07:58N 29°47' W 095°05'0 0.0
2018-Feb-24 07:30N 29°47' W 095°05'0 0.0
2018-Feb-24 06:59N 29°47' W 095°05'0 0.0
2018-Feb-24 06:28N 29°47' W 095°05'0 0.0
2018-Feb-24 06:00N 29°47' W 095°05'0 0.0
2018-Feb-24 05:30N 29°47' W 095°05'0 0.0
2018-Feb-24 04:55N 29°47' W 095°05'0 0.0
2018-Feb-24 04:30N 29°47' W 095°05'0 0.0
2018-Feb-24 03:56N 29°47' W 095°05'1 1.4
2018-Feb-24 03:24N 29°47' W 095°05'4 0.7
2018-Feb-23 22:23N 29°44' W 095°08'2 4.1
2018-Feb-23 22:00N 29°45' W 095°06'3 1.8
2018-Feb-23 20:26N 29°47' W 095°05'0 0.1
2018-Feb-23 19:57N 29°47' W 095°05'0 0.0
2018-Feb-23 19:30N 29°47' W 095°05'0 0.0
2018-Feb-23 19:00N 29°47' W 095°05'0 0.0
2018-Feb-23 18:30N 29°47' W 095°05'0 0.0
2018-Feb-23 18:00N 29°47' W 095°05'0 0.0
2018-Feb-23 17:28N 29°47' W 095°05'0 0.0
2018-Feb-23 17:00N 29°47' W 095°05'0 0.0
2018-Feb-23 16:29N 29°47' W 095°05'0 0.0
2018-Feb-23 15:58N 29°47' W 095°05'5 0.2
2018-Feb-22 17:47N 29°45' W 095°10'5 0.1
2018-Feb-20 14:04N 29°47' W 095°05'0 6.1
2018-Feb-20 14:00N 29°47' W 095°04'1 1.1
2018-Feb-20 13:30N 29°47' W 095°05'1 0.1
2018-Feb-19 18:13N 29°46' W 095°05'1 3.5
2018-Feb-19 17:56N 29°45' W 095°04'2 4.7
2018-Feb-19 17:30N 29°44' W 095°02'2 4.1
2018-Feb-19 16:59N 29°42' W 095°01'3 5.3
2018-Feb-19 16:30N 29°41' W 094°59'3 5.3
2018-Feb-19 16:00N 29°38' W 094°58'3 5.4
2018-Feb-19 15:30N 29°36' W 094°56'3 5.0
2018-Feb-19 15:00N 29°34' W 094°55'3 5.3
2018-Feb-19 14:30N 29°31' W 094°53'3 5.6
2018-Feb-19 14:00N 29°29' W 094°52'4 6.1
2018-Feb-19 13:25N 29°26' W 094°50'3 6.6
2018-Feb-19 13:00N 29°23' W 094°49'1 2.8
2018-Feb-19 12:30N 29°22' W 094°50'3 3.1
2018-Feb-19 11:26N 29°22' W 094°53'0 0.1
2018-Feb-19 11:00N 29°22' W 094°53'0 0.0
2018-Feb-19 10:31N 29°22' W 094°53'0 0.0
2018-Feb-19 09:59N 29°22' W 094°53'0 0.0
2018-Feb-19 09:28N 29°22' W 094°53'0 0.0
2018-Feb-19 09:00N 29°22' W 094°53'0 0.0
2018-Feb-19 08:30N 29°22' W 094°53'0 0.0
2018-Feb-19 08:00N 29°22' W 094°53'0 0.0
2018-Feb-19 07:30N 29°22' W 094°53'0 0.0
2018-Feb-19 07:00N 29°22' W 094°53'0 0.0
2018-Feb-19 06:29N 29°22' W 094°53'0 0.0
2018-Feb-19 06:00N 29°22' W 094°53'0 0.0
2018-Feb-19 05:30N 29°22' W 094°53'0 0.0
2018-Feb-19 05:00N 29°22' W 094°53'0 0.0
2018-Feb-19 04:30N 29°22' W 094°53'0 0.0
2018-Feb-19 03:37N 29°22' W 094°53'0 0.0
2018-Feb-18 19:24N 29°22' W 094°53'0 0.0
2018-Feb-18 16:23N 29°22' W 094°54'0 0.0
2018-Feb-18 10:52N 29°22' W 094°54'0 0.0
2018-Feb-18 09:22N 29°22' W 094°54'0 0.0
2018-Feb-18 07:51N 29°22' W 094°54'0 0.0
2018-Feb-18 05:48N 29°22' W 094°54'0 0.0
2018-Feb-18 05:21N 29°22' W 094°54'7 0.4
2018-Feb-17 11:24N 29°24' W 094°46'0 0.0
2018-Feb-17 09:00N 29°24' W 094°46'0 0.0
2018-Feb-17 08:00N 29°24' W 094°46'0 0.0
2018-Feb-17 06:43N 29°24' W 094°46'0 0.0
2018-Feb-17 06:29N 29°24' W 094°46'0 0.1
2018-Feb-17 05:57N 29°24' W 094°46'0 0.0
2018-Feb-17 05:30N 29°24' W 094°46'0 0.0
2018-Feb-17 04:49N 29°24' W 094°46'0 0.0
2018-Feb-17 04:31N 29°24' W 094°46'0 0.0
2018-Feb-17 04:00N 29°24' W 094°46'0 0.0
2018-Feb-17 03:30N 29°24' W 094°46'0 0.0
2018-Feb-17 03:01N 29°24' W 094°46'0 0.0
2018-Feb-17 02:16N 29°24' W 094°46'0 0.0
2018-Feb-17 02:01N 29°24' W 094°46'0 0.0
2018-Feb-17 01:30N 29°24' W 094°46'0 0.0
2018-Feb-17 00:54N 29°24' W 094°46'0 0.0
2018-Feb-17 00:30N 29°24' W 094°46'0 0.9
2018-Feb-17 00:00N 29°24' W 094°45'0 0.0
2018-Feb-16 23:30N 29°24' W 094°45'0 0.0
2018-Feb-16 22:59N 29°24' W 094°45'3 0.6
2018-Feb-16 17:51N 29°23' W 094°49'3 7.6
2018-Feb-16 17:30N 29°26' W 094°50'4 8.0
2018-Feb-16 17:00N 29°29' W 094°52'4 7.8
2018-Feb-16 16:30N 29°33' W 094°54'3 6.3
2018-Feb-16 16:00N 29°35' W 094°56'3 6.3
2018-Feb-16 15:30N 29°38' W 094°58'4 7.8
2018-Feb-16 15:00N 29°42' W 094°60'3 6.9
2018-Feb-16 14:30N 29°44' W 095°03'3 6.0
2018-Feb-16 14:00N 29°46' W 095°05'0 0.4
2018-Feb-16 13:30N 29°46' W 095°05'0 0.0
2018-Feb-16 09:09N 29°46' W 095°05'0 0.0
2018-Feb-16 07:48N 29°46' W 095°05'0 0.0
2018-Feb-16 07:25N 29°46' W 095°05'0 0.1
2018-Feb-16 06:56N 29°46' W 095°05'0 0.0
2018-Feb-16 06:14N 29°46' W 095°05'0 0.0
2018-Feb-16 05:58N 29°46' W 095°05'0 0.0
2018-Feb-16 05:30N 29°46' W 095°05'0 0.0
2018-Feb-16 04:58N 29°46' W 095°05'0 0.0
2018-Feb-16 04:20N 29°46' W 095°05'0 0.1
2018-Feb-16 03:59N 29°46' W 095°05'0 0.0
2018-Feb-16 03:24N 29°46' W 095°05'0 0.0
2018-Feb-16 02:21N 29°46' W 095°05'1 2.5
2018-Feb-16 01:59N 29°47' W 095°04'0 0.5
2018-Feb-16 01:28N 29°47' W 095°04'0 0.0
2018-Feb-15 07:15N 29°47' W 095°05'0 0.0
2018-Feb-15 07:00N 29°47' W 095°05'0 0.0
2018-Feb-15 06:30N 29°47' W 095°05'0 0.0
2018-Feb-15 05:38N 29°47' W 095°05'0 0.0
2018-Feb-15 05:23N 29°47' W 095°05'0 0.0
2018-Feb-15 04:54N 29°47' W 095°05'0 0.0
2018-Feb-15 04:23N 29°47' W 095°05'  

Dump ship's entire track history